sensor_id;sensor_type;location;lat;lon;timestamp;pressure;altitude;pressure_sealevel;temperature;humidity
67803;BME280;72185;51.378;-1.342;2024-03-02T00:00:20;97582.78;;;17.94;31.04
67803;BME280;72185;51.378;-1.342;2024-03-02T00:02:46;97580.42;;;17.99;30.93
67803;BME280;72185;51.378;-1.342;2024-03-02T00:05:11;97580.19;;;17.93;31.01
67803;BME280;72185;51.378;-1.342;2024-03-02T00:07:36;97581.32;;;17.90;31.03
67803;BME280;72185;51.378;-1.342;2024-03-02T00:10:07;97576.17;;;17.93;31.03
67803;BME280;72185;51.378;-1.342;2024-03-02T00:12:27;97574.10;;;17.94;30.98
67803;BME280;72185;51.378;-1.342;2024-03-02T00:14:52;97577.16;;;18.05;31.12
67803;BME280;72185;51.378;-1.342;2024-03-02T00:17:24;97578.39;;;17.75;31.21
67803;BME280;72185;51.378;-1.342;2024-03-02T00:19:43;97577.74;;;17.79;31.15
67803;BME280;72185;51.378;-1.342;2024-03-02T00:22:09;97576.59;;;17.77;31.16
67803;BME280;72185;51.378;-1.342;2024-03-02T00:24:35;97572.39;;;17.75;31.19
67803;BME280;72185;51.378;-1.342;2024-03-02T00:27:00;97568.61;;;17.62;31.32
67803;BME280;72185;51.378;-1.342;2024-03-02T00:29:27;97570.18;;;17.67;31.15
67803;BME280;72185;51.378;-1.342;2024-03-02T00:31:51;97564.90;;;17.92;31.17
67803;BME280;72185;51.378;-1.342;2024-03-02T00:34:17;97561.23;;;17.71;31.15
67803;BME280;72185;51.378;-1.342;2024-03-02T00:36:42;97560.54;;;17.66;31.22
67803;BME280;72185;51.378;-1.342;2024-03-02T00:39:08;97557.21;;;17.80;31.09
67803;BME280;72185;51.378;-1.342;2024-03-02T00:41:34;97552.29;;;17.73;31.11
67803;BME280;72185;51.378;-1.342;2024-03-02T00:44:00;97550.52;;;17.68;31.20
67803;BME280;72185;51.378;-1.342;2024-03-02T00:46:25;97551.43;;;17.74;31.10
67803;BME280;72185;51.378;-1.342;2024-03-02T00:48:53;97549.88;;;17.62;31.22
67803;BME280;72185;51.378;-1.342;2024-03-02T00:51:15;97549.62;;;17.78;31.05
67803;BME280;72185;51.378;-1.342;2024-03-02T00:53:41;97546.48;;;17.55;31.25
67803;BME280;72185;51.378;-1.342;2024-03-02T00:56:09;97551.18;;;17.77;30.99
67803;BME280;72185;51.378;-1.342;2024-03-02T00:58:32;97552.12;;;17.78;31.02
67803;BME280;72185;51.378;-1.342;2024-03-02T01:00:58;97551.28;;;17.70;31.04
67803;BME280;72185;51.378;-1.342;2024-03-02T01:03:23;97546.99;;;17.61;31.09
67803;BME280;72185;51.378;-1.342;2024-03-02T01:05:49;97543.58;;;17.61;31.09
67803;BME280;72185;51.378;-1.342;2024-03-02T01:08:14;97541.21;;;17.70;31.08
67803;BME280;72185;51.378;-1.342;2024-03-02T01:10:40;97539.94;;;17.90;31.09
67803;BME280;72185;51.378;-1.342;2024-03-02T01:13:05;97540.15;;;17.67;31.08
67803;BME280;72185;51.378;-1.342;2024-03-02T01:15:31;97539.16;;;17.59;31.10
67803;BME280;72185;51.378;-1.342;2024-03-02T01:17:57;97538.32;;;17.60;31.13
67803;BME280;72185;51.378;-1.342;2024-03-02T01:20:22;97539.56;;;17.64;31.06
67803;BME280;72185;51.378;-1.342;2024-03-02T01:22:48;97535.41;;;17.49;31.21
67803;BME280;72185;51.378;-1.342;2024-03-02T01:25:13;97532.29;;;17.48;31.25
67803;BME280;72185;51.378;-1.342;2024-03-02T01:27:39;97530.17;;;17.66;31.06
67803;BME280;72185;51.378;-1.342;2024-03-02T01:30:05;97525.11;;;17.78;30.91
67803;BME280;72185;51.378;-1.342;2024-03-02T01:32:30;97521.76;;;17.68;31.00
67803;BME280;72185;51.378;-1.342;2024-03-02T01:34:55;97524.16;;;17.84;30.82
67803;BME280;72185;51.378;-1.342;2024-03-02T01:37:21;97527.31;;;17.74;30.85
67803;BME280;72185;51.378;-1.342;2024-03-02T01:39:46;97524.81;;;17.61;30.79
67803;BME280;72185;51.378;-1.342;2024-03-02T01:42:12;97522.94;;;17.79;30.80
67803;BME280;72185;51.378;-1.342;2024-03-02T01:44:37;97521.08;;;17.83;30.83
67803;BME280;72185;51.378;-1.342;2024-03-02T01:47:03;97521.63;;;17.79;30.81
67803;BME280;72185;51.378;-1.342;2024-03-02T01:49:29;97523.24;;;17.77;30.90
67803;BME280;72185;51.378;-1.342;2024-03-02T01:51:54;97519.48;;;17.82;30.88
67803;BME280;72185;51.378;-1.342;2024-03-02T01:54:20;97516.38;;;17.79;30.90
67803;BME280;72185;51.378;-1.342;2024-03-02T01:56:45;97515.87;;;17.81;30.86
67803;BME280;72185;51.378;-1.342;2024-03-02T01:59:11;97513.15;;;17.80;30.89
67803;BME280;72185;51.378;-1.342;2024-03-02T02:01:36;97510.96;;;17.68;30.73
67803;BME280;72185;51.378;-1.342;2024-03-02T02:04:02;97510.70;;;18.07;30.79
67803;BME280;72185;51.378;-1.342;2024-03-02T02:06:28;97511.83;;;17.71;31.04
67803;BME280;72185;51.378;-1.342;2024-03-02T02:08:53;97510.61;;;17.64;31.15
67803;BME280;72185;51.378;-1.342;2024-03-02T02:11:19;97513.04;;;17.44;31.34
67803;BME280;72185;51.378;-1.342;2024-03-02T02:13:44;97516.94;;;17.59;31.23
67803;BME280;72185;51.378;-1.342;2024-03-02T02:16:10;97515.39;;;17.45;31.38
67803;BME280;72185;51.378;-1.342;2024-03-02T02:18:35;97513.49;;;17.33;31.51
67803;BME280;72185;51.378;-1.342;2024-03-02T02:21:01;97516.34;;;17.42;31.48
67803;BME280;72185;51.378;-1.342;2024-03-02T02:23:26;97516.21;;;17.68;31.45
67803;BME280;72185;51.378;-1.342;2024-03-02T02:25:52;97513.23;;;17.37;31.52
67803;BME280;72185;51.378;-1.342;2024-03-02T02:28:17;97511.60;;;17.28;31.67
67803;BME280;72185;51.378;-1.342;2024-03-02T02:30:43;97504.04;;;17.54;31.38
67803;BME280;72185;51.378;-1.342;2024-03-02T02:33:08;97494.67;;;17.35;31.60
67803;BME280;72185;51.378;-1.342;2024-03-02T02:35:34;97482.16;;;17.42;31.57
67803;BME280;72185;51.378;-1.342;2024-03-02T02:37:59;97480.48;;;17.47;31.48
67803;BME280;72185;51.378;-1.342;2024-03-02T02:40:25;97467.79;;;17.58;31.58
67803;BME280;72185;51.378;-1.342;2024-03-02T02:42:51;97460.03;;;17.40;31.57
67803;BME280;72185;51.378;-1.342;2024-03-02T02:45:16;97456.22;;;17.69;31.57
67803;BME280;72185;51.378;-1.342;2024-03-02T02:47:42;97461.28;;;17.52;31.54
67803;BME280;72185;51.378;-1.342;2024-03-02T02:50:08;97464.39;;;17.50;31.57
67803;BME280;72185;51.378;-1.342;2024-03-02T02:52:33;97460.99;;;17.80;31.47
67803;BME280;72185;51.378;-1.342;2024-03-02T02:54:58;97458.52;;;17.58;31.51
67803;BME280;72185;51.378;-1.342;2024-03-02T02:57:24;97454.20;;;17.62;31.48
67803;BME280;72185;51.378;-1.342;2024-03-02T02:59:49;97448.04;;;17.67;31.67
67803;BME280;72185;51.378;-1.342;2024-03-02T03:02:15;97440.87;;;17.51;31.63
67803;BME280;72185;51.378;-1.342;2024-03-02T03:04:40;97436.34;;;17.54;31.57
67803;BME280;72185;51.378;-1.342;2024-03-02T03:07:06;97421.35;;;17.59;31.57
67803;BME280;72185;51.378;-1.342;2024-03-02T03:09:31;97421.46;;;17.56;31.61
67803;BME280;72185;51.378;-1.342;2024-03-02T03:11:57;97416.74;;;17.58;31.61
67803;BME280;72185;51.378;-1.342;2024-03-02T03:14:22;97412.24;;;17.82;31.61
67803;BME280;72185;51.378;-1.342;2024-03-02T03:16:48;97407.05;;;17.55;31.68
67803;BME280;72185;51.378;-1.342;2024-03-02T03:19:14;97405.93;;;17.61;31.64
67803;BME280;72185;51.378;-1.342;2024-03-02T03:21:39;97397.67;;;17.61;31.65
67803;BME280;72185;51.378;-1.342;2024-03-02T03:24:05;97388.83;;;17.34;31.70
67803;BME280;72185;51.378;-1.342;2024-03-02T03:26:30;97388.68;;;17.77;31.73
67803;BME280;72185;51.378;-1.342;2024-03-02T03:28:56;97385.22;;;17.69;31.60
67803;BME280;72185;51.378;-1.342;2024-03-02T03:31:21;97380.31;;;17.89;31.64
67803;BME280;72185;51.378;-1.342;2024-03-02T03:33:47;97374.99;;;17.66;31.66
67803;BME280;72185;51.378;-1.342;2024-03-02T03:36:12;97376.87;;;17.68;31.65
67803;BME280;72185;51.378;-1.342;2024-03-02T03:38:38;97368.76;;;17.90;31.67
67803;BME280;72185;51.378;-1.342;2024-03-02T03:41:03;97369.15;;;17.70;31.66
67803;BME280;72185;51.378;-1.342;2024-03-02T03:43:29;97357.90;;;17.90;31.67
67803;BME280;72185;51.378;-1.342;2024-03-02T03:45:54;97355.28;;;17.71;31.63
67803;BME280;72185;51.378;-1.342;2024-03-02T03:48:20;97346.50;;;17.68;31.69
67803;BME280;72185;51.378;-1.342;2024-03-02T03:50:46;97339.57;;;17.66;31.71
67803;BME280;72185;51.378;-1.342;2024-03-02T03:53:11;97333.44;;;17.81;31.80
67803;BME280;72185;51.378;-1.342;2024-03-02T03:55:37;97327.88;;;17.73;31.66
67803;BME280;72185;51.378;-1.342;2024-03-02T03:58:02;97325.33;;;17.64;31.77
67803;BME280;72185;51.378;-1.342;2024-03-02T04:00:28;97319.69;;;17.67;31.72
67803;BME280;72185;51.378;-1.342;2024-03-02T04:02:53;97324.98;;;17.62;31.79
67803;BME280;72185;51.378;-1.342;2024-03-02T04:05:18;97322.56;;;17.64;31.81
67803;BME280;72185;51.378;-1.342;2024-03-02T04:07:44;97323.89;;;17.90;31.80
67803;BME280;72185;51.378;-1.342;2024-03-02T04:10:10;97319.23;;;17.72;31.73
67803;BME280;72185;51.378;-1.342;2024-03-02T04:12:36;97312.45;;;17.69;31.79
67803;BME280;72185;51.378;-1.342;2024-03-02T04:15:00;97303.79;;;17.64;31.81
67803;BME280;72185;51.378;-1.342;2024-03-02T04:17:26;97301.46;;;17.65;31.83
67803;BME280;72185;51.378;-1.342;2024-03-02T04:19:52;97294.65;;;17.62;31.88
67803;BME280;72185;51.378;-1.342;2024-03-02T04:22:17;97300.86;;;17.95;31.76
67803;BME280;72185;51.378;-1.342;2024-03-02T04:24:43;97298.39;;;16.88;32.32
67803;BME280;72185;51.378;-1.342;2024-03-02T04:27:08;97300.43;;;17.62;31.90
67803;BME280;72185;51.378;-1.342;2024-03-02T04:29:34;97300.28;;;17.79;31.67
67803;BME280;72185;51.378;-1.342;2024-03-02T04:31:59;97297.55;;;17.79;31.75
67803;BME280;72185;51.378;-1.342;2024-03-02T04:34:25;97294.95;;;18.00;31.76
67803;BME280;72185;51.378;-1.342;2024-03-02T04:36:50;97300.39;;;17.79;31.75
67803;BME280;72185;51.378;-1.342;2024-03-02T04:39:16;97296.56;;;17.98;31.81
67803;BME280;72185;51.378;-1.342;2024-03-02T04:41:41;97305.87;;;17.72;31.88
67803;BME280;72185;51.378;-1.342;2024-03-02T04:44:07;97308.86;;;17.77;31.81
67803;BME280;72185;51.378;-1.342;2024-03-02T04:46:32;97304.21;;;17.70;31.90
67803;BME280;72185;51.378;-1.342;2024-03-02T04:48:58;97302.22;;;17.76;31.84
67803;BME280;72185;51.378;-1.342;2024-03-02T04:51:24;97299.16;;;17.50;31.90
67803;BME280;72185;51.378;-1.342;2024-03-02T04:53:49;97298.76;;;17.78;31.85
67803;BME280;72185;51.378;-1.342;2024-03-02T04:56:15;97297.87;;;17.58;31.82
67803;BME280;72185;51.378;-1.342;2024-03-02T04:58:40;97301.58;;;17.79;31.84
67803;BME280;72185;51.378;-1.342;2024-03-02T05:01:06;97290.91;;;17.78;31.83
67803;BME280;72185;51.378;-1.342;2024-03-02T05:03:31;97281.94;;;17.77;31.82
67803;BME280;72185;51.378;-1.342;2024-03-02T05:05:57;97278.52;;;17.69;31.96
67803;BME280;72185;51.378;-1.342;2024-03-02T05:08:22;97276.94;;;17.79;31.85
67803;BME280;72185;51.378;-1.342;2024-03-02T05:10:48;97285.96;;;17.79;31.85
67803;BME280;72185;51.378;-1.342;2024-03-02T05:13:13;97281.92;;;17.75;31.90
67803;BME280;72185;51.378;-1.342;2024-03-02T05:15:39;97280.81;;;17.74;31.92
67803;BME280;72185;51.378;-1.342;2024-03-02T05:18:05;97274.84;;;17.72;31.95
67803;BME280;72185;51.378;-1.342;2024-03-02T05:20:30;97276.17;;;17.77;31.86
67803;BME280;72185;51.378;-1.342;2024-03-02T05:22:55;97270.29;;;17.70;31.95
67803;BME280;72185;51.378;-1.342;2024-03-02T05:25:21;97272.57;;;17.79;31.85
67803;BME280;72185;51.378;-1.342;2024-03-02T05:27:46;97275.16;;;17.78;31.82
67803;BME280;72185;51.378;-1.342;2024-03-02T05:30:12;97271.48;;;17.48;31.94
67803;BME280;72185;51.378;-1.342;2024-03-02T05:32:38;97272.71;;;17.79;31.83
67803;BME280;72185;51.378;-1.342;2024-03-02T05:35:04;97271.55;;;17.78;31.82
67803;BME280;72185;51.378;-1.342;2024-03-02T05:37:29;97267.73;;;17.79;31.82
67803;BME280;72185;51.378;-1.342;2024-03-02T05:39:54;97264.12;;;17.83;31.78
67803;BME280;72185;51.378;-1.342;2024-03-02T05:42:20;97261.44;;;17.84;31.73
67803;BME280;72185;51.378;-1.342;2024-03-02T05:44:45;97249.72;;;17.83;31.73
67803;BME280;72185;51.378;-1.342;2024-03-02T05:47:11;97250.79;;;17.77;31.81
67803;BME280;72185;51.378;-1.342;2024-03-02T05:49:36;97247.01;;;17.78;31.78
67803;BME280;72185;51.378;-1.342;2024-03-02T05:52:02;97239.34;;;17.83;31.72
67803;BME280;72185;51.378;-1.342;2024-03-02T05:54:27;97236.99;;;17.74;31.81
67803;BME280;72185;51.378;-1.342;2024-03-02T05:56:53;97234.00;;;18.05;31.73
67803;BME280;72185;51.378;-1.342;2024-03-02T05:59:18;97236.94;;;17.75;31.84
67803;BME280;72185;51.378;-1.342;2024-03-02T06:01:45;97225.07;;;17.79;31.75
67803;BME280;72185;51.378;-1.342;2024-03-02T06:04:10;97227.27;;;17.82;31.73
67803;BME280;72185;51.378;-1.342;2024-03-02T06:06:35;97223.84;;;17.85;31.71
67803;BME280;72185;51.378;-1.342;2024-03-02T06:09:01;97222.82;;;17.82;31.75
67803;BME280;72185;51.378;-1.342;2024-03-02T06:11:26;97221.44;;;17.82;31.74
67803;BME280;72185;51.378;-1.342;2024-03-02T06:13:52;97223.64;;;17.82;31.72
67803;BME280;72185;51.378;-1.342;2024-03-02T06:16:17;97224.85;;;17.78;31.76
67803;BME280;72185;51.378;-1.342;2024-03-02T06:18:43;97231.49;;;18.04;31.71
67803;BME280;72185;51.378;-1.342;2024-03-02T06:21:08;97240.14;;;17.72;31.84
67803;BME280;72185;51.378;-1.342;2024-03-02T06:23:34;97243.86;;;17.81;31.72
67803;BME280;72185;51.378;-1.342;2024-03-02T06:25:59;97246.25;;;17.67;31.89
67803;BME280;72185;51.378;-1.342;2024-03-02T06:28:25;97240.03;;;17.53;31.78
67803;BME280;72185;51.378;-1.342;2024-03-02T06:30:50;97242.73;;;17.87;31.63
67803;BME280;72185;51.378;-1.342;2024-03-02T06:33:16;97246.65;;;17.89;31.60
67803;BME280;72185;51.378;-1.342;2024-03-02T06:35:41;97249.26;;;17.99;31.49
67803;BME280;72185;51.378;-1.342;2024-03-02T06:38:07;97258.79;;;17.95;31.53
67803;BME280;72185;51.378;-1.342;2024-03-02T06:40:32;97268.09;;;17.92;31.52
67803;BME280;72185;51.378;-1.342;2024-03-02T06:42:58;97283.02;;;17.92;31.54
67803;BME280;72185;51.378;-1.342;2024-03-02T06:45:24;97287.10;;;17.91;31.55
67803;BME280;72185;51.378;-1.342;2024-03-02T06:47:49;97296.37;;;17.77;31.70
67803;BME280;72185;51.378;-1.342;2024-03-02T06:50:15;97303.38;;;18.02;31.40
67803;BME280;72185;51.378;-1.342;2024-03-02T06:52:40;97310.45;;;17.85;31.36
67803;BME280;72185;51.378;-1.342;2024-03-02T06:55:06;97317.23;;;17.92;31.49
67803;BME280;72185;51.378;-1.342;2024-03-02T06:57:31;97327.36;;;17.81;31.57
67803;BME280;72185;51.378;-1.342;2024-03-02T06:59:57;97334.14;;;17.74;31.69
67803;BME280;72185;51.378;-1.342;2024-03-02T07:02:22;97344.70;;;17.73;31.68
67803;BME280;72185;51.378;-1.342;2024-03-02T07:04:48;97356.48;;;17.77;31.62
67803;BME280;72185;51.378;-1.342;2024-03-02T07:07:13;97361.40;;;17.24;32.13
67803;BME280;72185;51.378;-1.342;2024-03-02T07:09:39;97376.82;;;17.76;31.63
67803;BME280;72185;51.378;-1.342;2024-03-02T07:12:05;97386.63;;;17.71;31.63
67803;BME280;72185;51.378;-1.342;2024-03-02T07:14:30;97387.17;;;17.72;31.60
67803;BME280;72185;51.378;-1.342;2024-03-02T07:16:55;97389.26;;;17.72;31.61
67803;BME280;72185;51.378;-1.342;2024-03-02T07:19:21;97393.42;;;17.91;31.60
67803;BME280;72185;51.378;-1.342;2024-03-02T07:21:47;97397.56;;;17.74;31.54
67803;BME280;72185;51.378;-1.342;2024-03-02T07:24:12;97396.85;;;17.37;31.67
67803;BME280;72185;51.378;-1.342;2024-03-02T07:26:38;97399.33;;;17.68;31.53
67803;BME280;72185;51.378;-1.342;2024-03-02T07:29:03;97400.31;;;17.65;31.53
67803;BME280;72185;51.378;-1.342;2024-03-02T07:31:29;97409.05;;;17.70;31.47
67803;BME280;72185;51.378;-1.342;2024-03-02T07:33:54;97409.65;;;17.68;31.48
67803;BME280;72185;51.378;-1.342;2024-03-02T07:36:20;97406.33;;;17.66;31.44
67803;BME280;72185;51.378;-1.342;2024-03-02T07:38:46;97411.18;;;17.71;31.40
67803;BME280;72185;51.378;-1.342;2024-03-02T07:41:11;97414.16;;;17.56;31.54
67803;BME280;72185;51.378;-1.342;2024-03-02T07:43:37;97419.66;;;17.67;31.42
67803;BME280;72185;51.378;-1.342;2024-03-02T07:46:02;97424.50;;;17.63;31.44
67803;BME280;72185;51.378;-1.342;2024-03-02T07:48:28;97430.80;;;17.47;31.34
67803;BME280;72185;51.378;-1.342;2024-03-02T07:50:53;97441.65;;;17.71;31.30
67803;BME280;72185;51.378;-1.342;2024-03-02T07:53:19;97445.63;;;17.52;31.47
67803;BME280;72185;51.378;-1.342;2024-03-02T07:55:44;97444.34;;;16.88;31.10
67803;BME280;72185;51.378;-1.342;2024-03-02T07:58:10;97451.09;;;18.07;30.84
67803;BME280;72185;51.378;-1.342;2024-03-02T08:00:35;97451.12;;;17.93;30.98
67803;BME280;72185;51.378;-1.342;2024-03-02T08:03:01;97450.68;;;17.73;31.13
67803;BME280;72185;51.378;-1.342;2024-03-02T08:05:26;97458.65;;;17.69;31.17
67803;BME280;72185;51.378;-1.342;2024-03-02T08:07:52;97462.71;;;17.67;31.30
67803;BME280;72185;51.378;-1.342;2024-03-02T08:10:18;97473.99;;;17.58;31.32
67803;BME280;72185;51.378;-1.342;2024-03-02T08:12:43;97475.27;;;17.66;31.25
67803;BME280;72185;51.378;-1.342;2024-03-02T08:15:09;97476.80;;;17.61;31.30
67803;BME280;72185;51.378;-1.342;2024-03-02T08:17:34;97484.64;;;17.59;31.35
67803;BME280;72185;51.378;-1.342;2024-03-02T08:20:00;97488.32;;;17.45;31.24
67803;BME280;72185;51.378;-1.342;2024-03-02T08:22:25;97491.25;;;17.50;31.45
67803;BME280;72185;51.378;-1.342;2024-03-02T08:24:51;97498.37;;;17.52;31.40
67803;BME280;72185;51.378;-1.342;2024-03-02T08:27:16;97504.07;;;17.68;31.25
67803;BME280;72185;51.378;-1.342;2024-03-02T08:29:42;97509.77;;;17.60;31.36
67803;BME280;72185;51.378;-1.342;2024-03-02T08:32:07;97510.16;;;17.82;31.30
67803;BME280;72185;51.378;-1.342;2024-03-02T08:34:33;97514.72;;;17.62;31.32
67803;BME280;72185;51.378;-1.342;2024-03-02T08:36:58;97517.76;;;17.61;31.35
67803;BME280;72185;51.378;-1.342;2024-03-02T08:39:24;97522.86;;;17.60;31.36
67803;BME280;72185;51.378;-1.342;2024-03-02T08:41:49;97524.99;;;17.81;31.38
67803;BME280;72185;51.378;-1.342;2024-03-02T08:44:15;97529.96;;;17.66;31.33
67803;BME280;72185;51.378;-1.342;2024-03-02T08:46:41;97533.09;;;17.68;31.31
67803;BME280;72185;51.378;-1.342;2024-03-02T08:49:06;97530.94;;;17.60;31.41
67803;BME280;72185;51.378;-1.342;2024-03-02T08:51:32;97536.71;;;17.77;31.48
67803;BME280;72185;51.378;-1.342;2024-03-02T08:53:57;97535.99;;;17.61;31.42
67803;BME280;72185;51.378;-1.342;2024-03-02T08:56:23;97539.05;;;17.71;31.32
67803;BME280;72185;51.378;-1.342;2024-03-02T08:58:48;97535.98;;;17.61;31.45
67803;BME280;72185;51.378;-1.342;2024-03-02T09:01:14;97537.18;;;17.97;31.31
67803;BME280;72185;51.378;-1.342;2024-03-02T09:03:39;97537.45;;;17.93;31.37
67803;BME280;72185;51.378;-1.342;2024-03-02T09:06:05;97537.81;;;17.60;31.50
67803;BME280;72185;51.378;-1.342;2024-03-02T09:08:30;97538.86;;;17.56;31.58
67803;BME280;72185;51.378;-1.342;2024-03-02T09:10:56;97541.44;;;17.72;31.45
67803;BME280;72185;51.378;-1.342;2024-03-02T09:13:21;97549.57;;;17.73;31.44
67803;BME280;72185;51.378;-1.342;2024-03-02T09:15:47;97548.25;;;17.95;31.44
67803;BME280;72185;51.378;-1.342;2024-03-02T09:18:12;97549.23;;;17.69;31.53
67803;BME280;72185;51.378;-1.342;2024-03-02T09:20:38;97553.88;;;17.87;31.56
67803;BME280;72185;51.378;-1.342;2024-03-02T09:23:04;97556.88;;;17.79;31.67
67803;BME280;72185;51.378;-1.342;2024-03-02T09:25:29;97559.89;;;17.70;31.57
67803;BME280;72185;51.378;-1.342;2024-03-02T09:27:55;97564.89;;;17.65;31.62
67803;BME280;72185;51.378;-1.342;2024-03-02T09:30:20;97563.36;;;17.65;31.65
67803;BME280;72185;51.378;-1.342;2024-03-02T09:32:46;97566.61;;;17.89;31.66
67803;BME280;72185;51.378;-1.342;2024-03-02T09:35:11;97563.91;;;17.74;31.60
67803;BME280;72185;51.378;-1.342;2024-03-02T09:37:37;97564.48;;;17.68;31.70
67803;BME280;72185;51.378;-1.342;2024-03-02T09:40:03;97568.82;;;17.61;31.76
67803;BME280;72185;51.378;-1.342;2024-03-02T09:42:28;97568.37;;;17.59;31.85
67803;BME280;72185;51.378;-1.342;2024-03-02T09:44:53;97572.08;;;17.73;31.96
67803;BME280;72185;51.378;-1.342;2024-03-02T09:47:19;97572.32;;;17.57;31.92
67803;BME280;72185;51.378;-1.342;2024-03-02T09:49:44;97575.91;;;17.51;32.05
67803;BME280;72185;51.378;-1.342;2024-03-02T09:52:10;97575.50;;;17.80;31.97
67803;BME280;72185;51.378;-1.342;2024-03-02T09:54:35;97578.24;;;17.52;32.09
67803;BME280;72185;51.378;-1.342;2024-03-02T09:57:02;97580.15;;;17.59;32.04
67803;BME280;72185;51.378;-1.342;2024-03-02T09:59:26;97578.30;;;17.57;32.09
67803;BME280;72185;51.378;-1.342;2024-03-02T10:01:57;97575.47;;;17.38;32.31
67803;BME280;72185;51.378;-1.342;2024-03-02T10:04:18;97578.21;;;17.51;32.21
67803;BME280;72185;51.378;-1.342;2024-03-02T10:06:43;97577.78;;;17.65;32.05
67803;BME280;72185;51.378;-1.342;2024-03-02T10:09:09;97578.92;;;17.62;32.10
67803;BME280;72185;51.378;-1.342;2024-03-02T10:11:35;97583.79;;;17.59;32.16
67803;BME280;72185;51.378;-1.342;2024-03-02T10:14:05;97588.26;;;17.76;32.03
67803;BME280;72185;51.378;-1.342;2024-03-02T10:16:25;97596.44;;;17.59;32.12
67803;BME280;72185;51.378;-1.342;2024-03-02T10:18:51;97601.32;;;17.94;32.01
67803;BME280;72185;51.378;-1.342;2024-03-02T10:21:16;97602.72;;;17.67;32.11
67803;BME280;72185;51.378;-1.342;2024-03-02T10:23:42;97603.87;;;17.70;32.06
67803;BME280;72185;51.378;-1.342;2024-03-02T10:26:16;97607.28;;;17.68;32.12
67803;BME280;72185;51.378;-1.342;2024-03-02T10:28:33;97612.61;;;17.54;31.99
67803;BME280;72185;51.378;-1.342;2024-03-02T10:30:58;97610.54;;;17.56;32.33
67803;BME280;72185;51.378;-1.342;2024-03-02T10:33:24;97612.48;;;17.82;32.04
67803;BME280;72185;51.378;-1.342;2024-03-02T10:35:50;97617.65;;;17.78;32.04
67803;BME280;72185;51.378;-1.342;2024-03-02T10:38:15;97616.89;;;17.79;32.06
67803;BME280;72185;51.378;-1.342;2024-03-02T10:40:40;97622.78;;;17.76;32.06
67803;BME280;72185;51.378;-1.342;2024-03-02T10:43:06;97625.41;;;17.86;31.98
67803;BME280;72185;51.378;-1.342;2024-03-02T10:45:31;97621.33;;;17.79;32.05
67803;BME280;72185;51.378;-1.342;2024-03-02T10:47:58;97624.67;;;17.81;32.05
67803;BME280;72185;51.378;-1.342;2024-03-02T10:50:24;97632.54;;;17.77;32.13
67803;BME280;72185;51.378;-1.342;2024-03-02T10:52:48;97638.53;;;17.90;31.98
67803;BME280;72185;51.378;-1.342;2024-03-02T10:55:13;97640.20;;;18.00;31.88
67803;BME280;72185;51.378;-1.342;2024-03-02T10:57:42;97641.40;;;17.84;32.06
67803;BME280;72185;51.378;-1.342;2024-03-02T11:00:07;97642.30;;;17.87;32.03
67803;BME280;72185;51.378;-1.342;2024-03-02T11:02:31;97641.92;;;17.91;32.02
67803;BME280;72185;51.378;-1.342;2024-03-02T11:04:56;97638.29;;;17.95;31.94
67803;BME280;72185;51.378;-1.342;2024-03-02T11:07:23;97644.30;;;17.66;32.05
67803;BME280;72185;51.378;-1.342;2024-03-02T11:09:53;97649.70;;;18.05;31.88
67803;BME280;72185;51.378;-1.342;2024-03-02T11:12:15;97653.17;;;18.07;31.87
67803;BME280;72185;51.378;-1.342;2024-03-02T11:14:41;97653.87;;;18.11;31.83
67803;BME280;72185;51.378;-1.342;2024-03-02T11:17:04;97654.41;;;18.08;31.88
67803;BME280;72185;51.378;-1.342;2024-03-02T11:19:29;97657.02;;;17.89;32.20
67803;BME280;72185;51.378;-1.342;2024-03-02T11:21:54;97657.86;;;17.88;32.20
67803;BME280;72185;51.378;-1.342;2024-03-02T11:24:28;97654.82;;;17.68;32.15
67803;BME280;72185;51.378;-1.342;2024-03-02T11:26:46;97658.08;;;17.91;32.14
67803;BME280;72185;51.378;-1.342;2024-03-02T11:36:27;97660.98;;;17.93;32.10
67803;BME280;72185;51.378;-1.342;2024-03-02T11:38:54;97667.15;;;18.09;31.92
67803;BME280;72185;51.378;-1.342;2024-03-02T11:41:19;97667.71;;;18.07;31.95
67803;BME280;72185;51.378;-1.342;2024-03-02T11:43:44;97672.11;;;18.02;32.03
67803;BME280;72185;51.378;-1.342;2024-03-02T11:46:10;97671.16;;;18.08;31.95
67803;BME280;72185;51.378;-1.342;2024-03-02T11:48:36;97677.64;;;17.99;32.03
67803;BME280;72185;51.378;-1.342;2024-03-02T11:51:01;97678.30;;;17.96;32.09
67803;BME280;72185;51.378;-1.342;2024-03-02T11:53:27;97673.30;;;17.99;32.11
67803;BME280;72185;51.378;-1.342;2024-03-02T11:55:52;97672.43;;;17.91;31.97
67803;BME280;72185;51.378;-1.342;2024-03-02T11:58:17;97678.55;;;17.53;32.15
67803;BME280;72185;51.378;-1.342;2024-03-02T12:00:43;97681.95;;;18.03;32.11
67803;BME280;72185;51.378;-1.342;2024-03-02T12:03:10;97680.68;;;18.06;32.05
67803;BME280;72185;51.378;-1.342;2024-03-02T12:05:34;97685.32;;;17.93;32.20
67803;BME280;72185;51.378;-1.342;2024-03-02T12:08:00;97678.93;;;17.87;32.00
67803;BME280;72185;51.378;-1.342;2024-03-02T12:10:25;97673.03;;;17.99;32.13
67803;BME280;72185;51.378;-1.342;2024-03-02T12:12:56;97671.94;;;17.87;32.06
67803;BME280;72185;51.378;-1.342;2024-03-02T12:15:16;97675.80;;;17.95;32.26
67803;BME280;72185;51.378;-1.342;2024-03-02T12:17:41;97673.75;;;18.05;32.13
67803;BME280;72185;51.378;-1.342;2024-03-02T12:20:07;97679.02;;;18.08;32.08
67803;BME280;72185;51.378;-1.342;2024-03-02T12:22:32;97674.60;;;18.07;32.11
67803;BME280;72185;51.378;-1.342;2024-03-02T12:24:58;97674.58;;;18.04;32.11
67803;BME280;72185;51.378;-1.342;2024-03-02T12:27:24;97679.90;;;17.98;31.89
67803;BME280;72185;51.378;-1.342;2024-03-02T12:29:49;97684.17;;;17.91;31.96
67803;BME280;72185;51.378;-1.342;2024-03-02T12:32:14;97677.36;;;17.55;32.05
67803;BME280;72185;51.378;-1.342;2024-03-02T12:34:40;97678.93;;;18.11;32.00
67803;BME280;72185;51.378;-1.342;2024-03-02T12:37:05;97676.88;;;18.16;31.90
67803;BME280;72185;51.378;-1.342;2024-03-02T12:39:31;97679.42;;;17.64;31.93
67803;BME280;72185;51.378;-1.342;2024-03-02T12:41:56;97680.28;;;18.19;31.93
67803;BME280;72185;51.378;-1.342;2024-03-02T12:44:22;97684.79;;;17.98;31.91
67803;BME280;72185;51.378;-1.342;2024-03-02T12:46:47;97683.78;;;17.93;31.91